KPRX/PRX METAR and TAF weather

Enter ICAO airport designator
Station Type Date Time Source
KPRX METAR 2024/05/28 22:56 UTC NOAA

KPRX 282256Z AUTO 10011KT 10SM FEW041 26/17 A3008 RMK AO2 SLP182 T02560172


Station Type Date Time Source
KPRX Decoded METAR 2024/05/28 22:56 UTC NOAA

Paris / Cox Field, TX, United States (KPRX) 33-38N 095-27W
May 28, 2024 - 06:56 PM EDT / 2024.05.28 2256 UTC
Wind: from the E (100 degrees) at 13 MPH (11 KT):0
Visibility: 10 mile(s):0
Sky conditions: mostly clear
Temperature: 78.1 F (25.6 C)
Dew Point: 63.0 F (17.2 C)
Relative Humidity: 59%
Pressure (altimeter): 30.08 in. Hg (1018 hPa)
ob: KPRX 282256Z AUTO 10011KT 10SM FEW041 26/17 A3008 RMK AO2 SLP182 T02560172
cycle: 23

Station Type Date Time Source
KPRX TAF UTC NOAA

Error!

Example: see airport list